sensor_id;sensor_type;location;lat;lon;timestamp;pressure;altitude;pressure_sealevel;temperature
24714;BMP280;12820;51.580;5.010;2022-08-02T00:03:24;101755.34;;;20.61
24714;BMP280;12820;51.580;5.010;2022-08-02T00:08:27;101764.78;;;20.59
24714;BMP280;12820;51.580;5.010;2022-08-02T00:13:29;101764.91;;;20.56
24714;BMP280;12820;51.580;5.010;2022-08-02T00:18:31;101765.81;;;20.55
24714;BMP280;12820;51.580;5.010;2022-08-02T00:23:33;101782.94;;;20.53
24714;BMP280;12820;51.580;5.010;2022-08-02T00:28:55;101782.16;;;20.51
24714;BMP280;12820;51.580;5.010;2022-08-02T00:33:58;101773.75;;;20.49
24714;BMP280;12820;51.580;5.010;2022-08-02T00:39:20;101767.16;;;20.44
24714;BMP280;12820;51.580;5.010;2022-08-02T00:44:36;101760.41;;;20.41
24714;BMP280;12820;51.580;5.010;2022-08-02T00:49:38;101741.06;;;20.36
24714;BMP280;12820;51.580;5.010;2022-08-02T00:54:41;101733.63;;;20.30
24714;BMP280;12820;51.580;5.010;2022-08-02T00:59:43;101728.78;;;20.23
24714;BMP280;12820;51.580;5.010;2022-08-02T01:04:45;101746.00;;;20.18
24714;BMP280;12820;51.580;5.010;2022-08-02T01:09:47;101750.41;;;20.14
24714;BMP280;12820;51.580;5.010;2022-08-02T01:14:50;101744.69;;;20.08
24714;BMP280;12820;51.580;5.010;2022-08-02T01:25:28;101746.81;;;19.97
24714;BMP280;12820;51.580;5.010;2022-08-02T01:30:34;101743.59;;;19.92
24714;BMP280;12820;51.580;5.010;2022-08-02T01:35:41;101726.84;;;19.87
24714;BMP280;12820;51.580;5.010;2022-08-02T01:40:52;101732.91;;;19.83
24714;BMP280;12820;51.580;5.010;2022-08-02T01:45:56;101740.75;;;19.79
24714;BMP280;12820;51.580;5.010;2022-08-02T01:51:01;101739.19;;;19.75
24714;BMP280;12820;51.580;5.010;2022-08-02T01:56:04;101725.78;;;19.70
24714;BMP280;12820;51.580;5.010;2022-08-02T02:01:08;101719.13;;;19.66
24714;BMP280;12820;51.580;5.010;2022-08-02T02:06:17;101715.09;;;19.61
24714;BMP280;12820;51.580;5.010;2022-08-02T02:11:20;101705.94;;;19.56
24714;BMP280;12820;51.580;5.010;2022-08-02T02:16:45;101705.31;;;19.49
24714;BMP280;12820;51.580;5.010;2022-08-02T02:21:49;101716.47;;;19.45
24714;BMP280;12820;51.580;5.010;2022-08-02T02:26:51;101710.72;;;19.40
24714;BMP280;12820;51.580;5.010;2022-08-02T02:31:55;101706.56;;;19.38
24714;BMP280;12820;51.580;5.010;2022-08-02T02:37:01;101703.34;;;19.33
24714;BMP280;12820;51.580;5.010;2022-08-02T02:42:07;101707.72;;;19.30
24714;BMP280;12820;51.580;5.010;2022-08-02T02:47:10;101698.59;;;19.24
24714;BMP280;12820;51.580;5.010;2022-08-02T02:52:14;101690.25;;;19.20
24714;BMP280;12820;51.580;5.010;2022-08-02T02:57:17;101692.91;;;19.17
24714;BMP280;12820;51.580;5.010;2022-08-02T03:02:20;101687.97;;;19.12
24714;BMP280;12820;51.580;5.010;2022-08-02T03:07:22;101691.50;;;19.08
24714;BMP280;12820;51.580;5.010;2022-08-02T03:12:25;101687.41;;;19.04
24714;BMP280;12820;51.580;5.010;2022-08-02T03:17:40;101700.31;;;19.00
24714;BMP280;12820;51.580;5.010;2022-08-02T03:22:43;101691.13;;;18.96
24714;BMP280;12820;51.580;5.010;2022-08-02T03:27:46;101675.91;;;18.93
24714;BMP280;12820;51.580;5.010;2022-08-02T03:32:48;101680.25;;;18.91
24714;BMP280;12820;51.580;5.010;2022-08-02T03:37:52;101667.56;;;18.90
24714;BMP280;12820;51.580;5.010;2022-08-02T03:42:56;101668.34;;;18.92
24714;BMP280;12820;51.580;5.010;2022-08-02T03:48:00;101661.59;;;18.91
24714;BMP280;12820;51.580;5.010;2022-08-02T03:53:04;101659.88;;;18.91
24714;BMP280;12820;51.580;5.010;2022-08-02T03:58:22;101642.91;;;18.90
24714;BMP280;12820;51.580;5.010;2022-08-02T04:03:25;101628.50;;;18.89
24714;BMP280;12820;51.580;5.010;2022-08-02T04:08:27;101633.59;;;18.89
24714;BMP280;12820;51.580;5.010;2022-08-02T04:13:37;101639.53;;;18.90
24714;BMP280;12820;51.580;5.010;2022-08-02T04:18:45;101639.53;;;18.90
24714;BMP280;12820;51.580;5.010;2022-08-02T04:23:51;101646.34;;;18.89
24714;BMP280;12820;51.580;5.010;2022-08-02T04:28:54;101656.53;;;18.89
24714;BMP280;12820;51.580;5.010;2022-08-02T04:33:56;101664.28;;;18.86
24714;BMP280;12820;51.580;5.010;2022-08-02T04:38:58;101651.63;;;18.84
24714;BMP280;12820;51.580;5.010;2022-08-02T04:44:00;101644.94;;;18.81
24714;BMP280;12820;51.580;5.010;2022-08-02T04:49:02;101639.06;;;18.79
24714;BMP280;12820;51.580;5.010;2022-08-02T04:54:08;101645.09;;;18.77
24714;BMP280;12820;51.580;5.010;2022-08-02T04:59:11;101640.91;;;18.76
24714;BMP280;12820;51.580;5.010;2022-08-02T05:04:14;101644.31;;;18.75
24714;BMP280;12820;51.580;5.010;2022-08-02T05:09:20;101644.22;;;18.78
24714;BMP280;12820;51.580;5.010;2022-08-02T05:14:22;101632.25;;;18.80
24714;BMP280;12820;51.580;5.010;2022-08-02T05:19:25;101633.81;;;18.84
24714;BMP280;12820;51.580;5.010;2022-08-02T05:24:27;101628.56;;;18.88
24714;BMP280;12820;51.580;5.010;2022-08-02T05:29:29;101631.78;;;18.93
24714;BMP280;12820;51.580;5.010;2022-08-02T05:34:31;101649.44;;;18.97
24714;BMP280;12820;51.580;5.010;2022-08-02T05:39:33;101646.69;;;19.03
24714;BMP280;12820;51.580;5.010;2022-08-02T05:44:37;101660.97;;;19.07
24714;BMP280;12820;51.580;5.010;2022-08-02T05:49:39;101680.28;;;19.14
24714;BMP280;12820;51.580;5.010;2022-08-02T06:00:06;101666.00;;;19.32
24714;BMP280;12820;51.580;5.010;2022-08-02T06:05:15;101666.59;;;19.39
24714;BMP280;12820;51.580;5.010;2022-08-02T06:10:21;101659.53;;;19.45
24714;BMP280;12820;51.580;5.010;2022-08-02T06:15:23;101660.16;;;19.51
24714;BMP280;12820;51.580;5.010;2022-08-02T06:20:26;101656.59;;;19.57
24714;BMP280;12820;51.580;5.010;2022-08-02T06:25:29;101659.69;;;19.64
24714;BMP280;12820;51.580;5.010;2022-08-02T06:30:52;101650.09;;;19.71
24714;BMP280;12820;51.580;5.010;2022-08-02T06:36:02;101649.72;;;19.79
24714;BMP280;12820;51.580;5.010;2022-08-02T06:41:06;101652.75;;;19.89
24714;BMP280;12820;51.580;5.010;2022-08-02T06:46:10;101660.78;;;20.01
24714;BMP280;12820;51.580;5.010;2022-08-02T06:51:32;101656.84;;;20.13
24714;BMP280;12820;51.580;5.010;2022-08-02T06:56:35;101641.06;;;20.25
24714;BMP280;12820;51.580;5.010;2022-08-02T07:01:37;101641.28;;;20.40
24714;BMP280;12820;51.580;5.010;2022-08-02T07:06:40;101647.56;;;20.53
24714;BMP280;12820;51.580;5.010;2022-08-02T07:11:42;101636.69;;;20.67
24714;BMP280;12820;51.580;5.010;2022-08-02T07:16:44;101648.88;;;20.81
24714;BMP280;12820;51.580;5.010;2022-08-02T07:21:46;101652.63;;;20.92
24714;BMP280;12820;51.580;5.010;2022-08-02T07:27:02;101648.66;;;21.04
24714;BMP280;12820;51.580;5.010;2022-08-02T07:32:17;101642.03;;;21.20
24714;BMP280;12820;51.580;5.010;2022-08-02T07:37:26;101645.81;;;21.30
24714;BMP280;12820;51.580;5.010;2022-08-02T07:42:51;101650.25;;;21.44
24714;BMP280;12820;51.580;5.010;2022-08-02T07:48:00;101649.50;;;21.60
24714;BMP280;12820;51.580;5.010;2022-08-02T07:53:02;101641.78;;;21.78
24714;BMP280;12820;51.580;5.010;2022-08-02T07:58:04;101647.88;;;21.94
24714;BMP280;12820;51.580;5.010;2022-08-02T08:03:12;101652.41;;;22.06
24714;BMP280;12820;51.580;5.010;2022-08-02T08:08:14;101638.75;;;22.23
24714;BMP280;12820;51.580;5.010;2022-08-02T08:13:18;101635.34;;;22.39
24714;BMP280;12820;51.580;5.010;2022-08-02T08:18:20;101633.59;;;22.58
24714;BMP280;12820;51.580;5.010;2022-08-02T08:23:23;101636.06;;;22.76
24714;BMP280;12820;51.580;5.010;2022-08-02T08:28:25;101636.19;;;22.89
24714;BMP280;12820;51.580;5.010;2022-08-02T08:33:27;101647.31;;;23.05
24714;BMP280;12820;51.580;5.010;2022-08-02T08:38:29;101646.50;;;23.19
24714;BMP280;12820;51.580;5.010;2022-08-02T08:43:31;101636.53;;;23.30
24714;BMP280;12820;51.580;5.010;2022-08-02T08:48:34;101631.50;;;23.44
24714;BMP280;12820;51.580;5.010;2022-08-02T08:53:41;101641.13;;;23.55
24714;BMP280;12820;51.580;5.010;2022-08-02T08:58:44;101629.53;;;23.64
24714;BMP280;12820;51.580;5.010;2022-08-02T09:03:50;101629.78;;;23.74
24714;BMP280;12820;51.580;5.010;2022-08-02T09:08:52;101623.88;;;23.87
24714;BMP280;12820;51.580;5.010;2022-08-02T09:13:57;101627.09;;;24.06
24714;BMP280;12820;51.580;5.010;2022-08-02T09:19:16;101619.16;;;24.24
24714;BMP280;12820;51.580;5.010;2022-08-02T09:24:22;101625.25;;;24.52
24714;BMP280;12820;51.580;5.010;2022-08-02T09:29:25;101622.53;;;24.68
24714;BMP280;12820;51.580;5.010;2022-08-02T09:34:42;101629.34;;;24.83
24714;BMP280;12820;51.580;5.010;2022-08-02T09:39:44;101632.84;;;24.95
24714;BMP280;12820;51.580;5.010;2022-08-02T09:44:53;101645.34;;;25.01
24714;BMP280;12820;51.580;5.010;2022-08-02T09:49:56;101621.63;;;25.10
24714;BMP280;12820;51.580;5.010;2022-08-02T09:55:03;101621.19;;;25.31
24714;BMP280;12820;51.580;5.010;2022-08-02T10:00:06;101628.94;;;25.57
24714;BMP280;12820;51.580;5.010;2022-08-02T10:05:21;101626.47;;;25.81
24714;BMP280;12820;51.580;5.010;2022-08-02T10:10:23;101624.22;;;26.02
24714;BMP280;12820;51.580;5.010;2022-08-02T10:15:25;101616.88;;;26.35
24714;BMP280;12820;51.580;5.010;2022-08-02T10:20:29;101612.63;;;26.72
24714;BMP280;12820;51.580;5.010;2022-08-02T10:25:36;101605.91;;;27.06
24714;BMP280;12820;51.580;5.010;2022-08-02T10:30:39;101615.19;;;27.20
24714;BMP280;12820;51.580;5.010;2022-08-02T10:35:43;101614.44;;;27.30
24714;BMP280;12820;51.580;5.010;2022-08-02T10:40:49;101612.22;;;27.49
24714;BMP280;12820;51.580;5.010;2022-08-02T10:45:51;101605.25;;;27.74
24714;BMP280;12820;51.580;5.010;2022-08-02T10:50:54;101602.56;;;28.09
24714;BMP280;12820;51.580;5.010;2022-08-02T10:56:00;101596.84;;;28.39
24714;BMP280;12820;51.580;5.010;2022-08-02T11:01:05;101604.63;;;28.60
24714;BMP280;12820;51.580;5.010;2022-08-02T11:06:26;101577.88;;;28.83
24714;BMP280;12820;51.580;5.010;2022-08-02T11:12:04;101585.03;;;29.01
24714;BMP280;12820;51.580;5.010;2022-08-02T11:17:13;101584.09;;;29.02
24714;BMP280;12820;51.580;5.010;2022-08-02T11:22:16;101582.09;;;28.94
24714;BMP280;12820;51.580;5.010;2022-08-02T11:27:26;101579.63;;;29.04
24714;BMP280;12820;51.580;5.010;2022-08-02T11:32:30;101580.66;;;29.23
24714;BMP280;12820;51.580;5.010;2022-08-02T11:37:35;101570.75;;;29.49
24714;BMP280;12820;51.580;5.010;2022-08-02T11:42:39;101573.00;;;29.84
24714;BMP280;12820;51.580;5.010;2022-08-02T11:47:50;101574.94;;;30.22
24714;BMP280;12820;51.580;5.010;2022-08-02T11:52:55;101571.06;;;30.47
24714;BMP280;12820;51.580;5.010;2022-08-02T11:57:59;101565.72;;;30.68
24714;BMP280;12820;51.580;5.010;2022-08-02T12:03:06;101559.75;;;30.77
24714;BMP280;12820;51.580;5.010;2022-08-02T12:08:08;101558.66;;;31.09
24714;BMP280;12820;51.580;5.010;2022-08-02T12:13:10;101559.94;;;31.33
24714;BMP280;12820;51.580;5.010;2022-08-02T12:18:14;101555.91;;;31.40
24714;BMP280;12820;51.580;5.010;2022-08-02T12:23:42;101556.75;;;31.58
24714;BMP280;12820;51.580;5.010;2022-08-02T12:29:01;101557.81;;;31.75
24714;BMP280;12820;51.580;5.010;2022-08-02T12:34:10;101554.84;;;31.88
24714;BMP280;12820;51.580;5.010;2022-08-02T12:39:15;101548.00;;;32.15
24714;BMP280;12820;51.580;5.010;2022-08-02T12:44:17;101537.22;;;32.55
24714;BMP280;12820;51.580;5.010;2022-08-02T12:49:20;101552.47;;;32.85
24714;BMP280;12820;51.580;5.010;2022-08-02T12:54:25;101540.72;;;33.08
24714;BMP280;12820;51.580;5.010;2022-08-02T12:59:35;101533.16;;;33.31
24714;BMP280;12820;51.580;5.010;2022-08-02T13:04:40;101537.91;;;33.62
24714;BMP280;12820;51.580;5.010;2022-08-02T13:09:51;101517.41;;;33.84
24714;BMP280;12820;51.580;5.010;2022-08-02T13:15:08;101518.41;;;34.25
24714;BMP280;12820;51.580;5.010;2022-08-02T13:20:30;101523.03;;;34.63
24714;BMP280;12820;51.580;5.010;2022-08-02T13:25:32;101502.78;;;34.90
24714;BMP280;12820;51.580;5.010;2022-08-02T13:30:34;101515.00;;;35.22
24714;BMP280;12820;51.580;5.010;2022-08-02T13:35:36;101490.84;;;35.43
24714;BMP280;12820;51.580;5.010;2022-08-02T13:40:39;101488.88;;;35.61
24714;BMP280;12820;51.580;5.010;2022-08-02T13:46:06;101485.13;;;35.87
24714;BMP280;12820;51.580;5.010;2022-08-02T13:51:08;101480.03;;;36.24
24714;BMP280;12820;51.580;5.010;2022-08-02T13:56:15;101473.25;;;36.45
24714;BMP280;12820;51.580;5.010;2022-08-02T14:01:18;101464.88;;;36.65
24714;BMP280;12820;51.580;5.010;2022-08-02T14:06:20;101456.75;;;36.82
24714;BMP280;12820;51.580;5.010;2022-08-02T14:11:22;101444.81;;;37.09
24714;BMP280;12820;51.580;5.010;2022-08-02T14:16:25;101437.88;;;37.38
24714;BMP280;12820;51.580;5.010;2022-08-02T14:21:34;101436.41;;;37.57
24714;BMP280;12820;51.580;5.010;2022-08-02T14:26:49;101429.50;;;37.78
24714;BMP280;12820;51.580;5.010;2022-08-02T14:31:51;101436.34;;;38.01
24714;BMP280;12820;51.580;5.010;2022-08-02T14:36:54;101427.59;;;38.23
24714;BMP280;12820;51.580;5.010;2022-08-02T14:41:56;101419.16;;;38.41
24714;BMP280;12820;51.580;5.010;2022-08-02T14:47:01;101430.09;;;38.59
24714;BMP280;12820;51.580;5.010;2022-08-02T14:52:03;101420.00;;;38.76
24714;BMP280;12820;51.580;5.010;2022-08-02T14:57:06;101416.47;;;38.83
24714;BMP280;12820;51.580;5.010;2022-08-02T15:02:09;101399.13;;;38.89
24714;BMP280;12820;51.580;5.010;2022-08-02T15:07:14;101407.59;;;39.05
24714;BMP280;12820;51.580;5.010;2022-08-02T15:12:17;101407.25;;;39.08
24714;BMP280;12820;51.580;5.010;2022-08-02T15:17:19;101403.41;;;39.10
24714;BMP280;12820;51.580;5.010;2022-08-02T15:22:21;101388.53;;;39.17
24714;BMP280;12820;51.580;5.010;2022-08-02T15:27:24;101389.59;;;39.22
24714;BMP280;12820;51.580;5.010;2022-08-02T15:32:26;101387.78;;;39.23
24714;BMP280;12820;51.580;5.010;2022-08-02T15:37:28;101374.94;;;38.99
24714;BMP280;12820;51.580;5.010;2022-08-02T15:42:32;101383.84;;;39.13
24714;BMP280;12820;51.580;5.010;2022-08-02T15:47:34;101378.47;;;38.86
24714;BMP280;12820;51.580;5.010;2022-08-02T15:52:36;101373.47;;;38.70
24714;BMP280;12820;51.580;5.010;2022-08-02T15:57:38;101373.81;;;38.67
24714;BMP280;12820;51.580;5.010;2022-08-02T16:02:40;101374.63;;;38.68
24714;BMP280;12820;51.580;5.010;2022-08-02T16:07:43;101371.22;;;38.88
24714;BMP280;12820;51.580;5.010;2022-08-02T16:12:45;101367.97;;;39.06
24714;BMP280;12820;51.580;5.010;2022-08-02T16:17:47;101353.06;;;38.93
24714;BMP280;12820;51.580;5.010;2022-08-02T16:22:55;101362.50;;;38.87
24714;BMP280;12820;51.580;5.010;2022-08-02T16:27:57;101357.22;;;38.67
24714;BMP280;12820;51.580;5.010;2022-08-02T16:33:09;101348.78;;;38.57
24714;BMP280;12820;51.580;5.010;2022-08-02T16:38:11;101344.56;;;38.56
24714;BMP280;12820;51.580;5.010;2022-08-02T16:43:13;101353.34;;;38.49
24714;BMP280;12820;51.580;5.010;2022-08-02T16:48:15;101342.63;;;38.30
24714;BMP280;12820;51.580;5.010;2022-08-02T16:53:17;101345.88;;;38.18
24714;BMP280;12820;51.580;5.010;2022-08-02T16:58:39;101344.53;;;37.93
24714;BMP280;12820;51.580;5.010;2022-08-02T17:03:45;101344.41;;;37.73
24714;BMP280;12820;51.580;5.010;2022-08-02T17:08:59;101350.63;;;37.44
24714;BMP280;12820;51.580;5.010;2022-08-02T17:14:01;101348.41;;;36.89
24714;BMP280;12820;51.580;5.010;2022-08-02T17:19:04;101338.22;;;36.43
24714;BMP280;12820;51.580;5.010;2022-08-02T17:24:08;101336.09;;;36.08
24714;BMP280;12820;51.580;5.010;2022-08-02T17:29:12;101339.53;;;35.93
24714;BMP280;12820;51.580;5.010;2022-08-02T17:34:19;101342.19;;;35.78
24714;BMP280;12820;51.580;5.010;2022-08-02T17:39:28;101343.38;;;35.60
24714;BMP280;12820;51.580;5.010;2022-08-02T17:44:44;101345.66;;;35.16
24714;BMP280;12820;51.580;5.010;2022-08-02T17:49:51;101351.53;;;34.79
24714;BMP280;12820;51.580;5.010;2022-08-02T17:54:53;101347.50;;;34.52
24714;BMP280;12820;51.580;5.010;2022-08-02T17:59:59;101349.72;;;34.31
24714;BMP280;12820;51.580;5.010;2022-08-02T18:05:06;101350.28;;;34.10
24714;BMP280;12820;51.580;5.010;2022-08-02T18:10:15;101355.81;;;33.82
24714;BMP280;12820;51.580;5.010;2022-08-02T18:15:17;101363.56;;;33.50
24714;BMP280;12820;51.580;5.010;2022-08-02T18:20:21;101369.78;;;33.15
24714;BMP280;12820;51.580;5.010;2022-08-02T18:25:23;101368.38;;;32.86
24714;BMP280;12820;51.580;5.010;2022-08-02T18:30:45;101371.72;;;32.52
24714;BMP280;12820;51.580;5.010;2022-08-02T18:35:52;101372.66;;;32.25
24714;BMP280;12820;51.580;5.010;2022-08-02T18:40:57;101369.63;;;31.94
24714;BMP280;12820;51.580;5.010;2022-08-02T18:46:05;101367.09;;;31.66
24714;BMP280;12820;51.580;5.010;2022-08-02T18:51:17;101369.59;;;31.40
24714;BMP280;12820;51.580;5.010;2022-08-02T18:56:20;101384.06;;;31.15
24714;BMP280;12820;51.580;5.010;2022-08-02T19:01:25;101387.06;;;30.92
24714;BMP280;12820;51.580;5.010;2022-08-02T19:06:35;101392.75;;;30.68
24714;BMP280;12820;51.580;5.010;2022-08-02T19:11:40;101391.84;;;30.39
24714;BMP280;12820;51.580;5.010;2022-08-02T19:16:49;101396.75;;;30.13
24714;BMP280;12820;51.580;5.010;2022-08-02T19:21:54;101399.31;;;29.84
24714;BMP280;12820;51.580;5.010;2022-08-02T19:27:18;101398.06;;;29.59
24714;BMP280;12820;51.580;5.010;2022-08-02T19:32:26;101410.44;;;29.35
24714;BMP280;12820;51.580;5.010;2022-08-02T19:37:46;101411.56;;;29.11
24714;BMP280;12820;51.580;5.010;2022-08-02T19:42:53;101412.69;;;28.88
24714;BMP280;12820;51.580;5.010;2022-08-02T19:48:22;101423.97;;;28.65
24714;BMP280;12820;51.580;5.010;2022-08-02T19:53:29;101420.47;;;28.45
24714;BMP280;12820;51.580;5.010;2022-08-02T19:58:49;101422.94;;;28.25
24714;BMP280;12820;51.580;5.010;2022-08-02T20:03:55;101416.44;;;28.09
24714;BMP280;12820;51.580;5.010;2022-08-02T20:08:57;101422.75;;;27.94
24714;BMP280;12820;51.580;5.010;2022-08-02T20:14:03;101424.88;;;27.79
24714;BMP280;12820;51.580;5.010;2022-08-02T20:19:06;101424.44;;;27.62
24714;BMP280;12820;51.580;5.010;2022-08-02T20:24:08;101429.69;;;27.49
24714;BMP280;12820;51.580;5.010;2022-08-02T20:29:11;101433.13;;;27.38
24714;BMP280;12820;51.580;5.010;2022-08-02T20:34:13;101438.47;;;27.24
24714;BMP280;12820;51.580;5.010;2022-08-02T20:39:19;101443.56;;;27.13
24714;BMP280;12820;51.580;5.010;2022-08-02T20:44:21;101446.19;;;27.01
24714;BMP280;12820;51.580;5.010;2022-08-02T20:49:33;101435.78;;;26.91
24714;BMP280;12820;51.580;5.010;2022-08-02T20:54:42;101439.84;;;26.82
24714;BMP280;12820;51.580;5.010;2022-08-02T20:59:47;101444.94;;;26.72
24714;BMP280;12820;51.580;5.010;2022-08-02T21:04:53;101437.84;;;26.63
24714;BMP280;12820;51.580;5.010;2022-08-02T21:09:55;101445.41;;;26.54
24714;BMP280;12820;51.580;5.010;2022-08-02T21:14:57;101440.78;;;26.46
24714;BMP280;12820;51.580;5.010;2022-08-02T21:20:00;101438.06;;;26.36
24714;BMP280;12820;51.580;5.010;2022-08-02T21:25:03;101447.34;;;26.26
24714;BMP280;12820;51.580;5.010;2022-08-02T21:30:10;101437.69;;;26.17
24714;BMP280;12820;51.580;5.010;2022-08-02T21:35:12;101439.22;;;26.07
24714;BMP280;12820;51.580;5.010;2022-08-02T21:40:15;101430.47;;;25.98
24714;BMP280;12820;51.580;5.010;2022-08-02T21:45:17;101432.81;;;25.88
24714;BMP280;12820;51.580;5.010;2022-08-02T21:50:21;101433.50;;;25.78
24714;BMP280;12820;51.580;5.010;2022-08-02T21:55:23;101439.44;;;25.66
24714;BMP280;12820;51.580;5.010;2022-08-02T22:00:45;101435.19;;;25.53
24714;BMP280;12820;51.580;5.010;2022-08-02T22:05:47;101436.72;;;25.44
24714;BMP280;12820;51.580;5.010;2022-08-02T22:10:51;101439.97;;;25.33
24714;BMP280;12820;51.580;5.010;2022-08-02T22:16:04;101443.34;;;25.22
24714;BMP280;12820;51.580;5.010;2022-08-02T22:21:07;101443.09;;;25.12
24714;BMP280;12820;51.580;5.010;2022-08-02T22:26:17;101443.75;;;25.02
24714;BMP280;12820;51.580;5.010;2022-08-02T22:31:22;101449.66;;;24.91
24714;BMP280;12820;51.580;5.010;2022-08-02T22:36:43;101447.66;;;24.82
24714;BMP280;12820;51.580;5.010;2022-08-02T22:41:45;101447.47;;;24.71
24714;BMP280;12820;51.580;5.010;2022-08-02T22:47:07;101449.16;;;24.58
24714;BMP280;12820;51.580;5.010;2022-08-02T22:52:15;101443.81;;;24.48
24714;BMP280;12820;51.580;5.010;2022-08-02T22:57:21;101455.66;;;24.37
24714;BMP280;12820;51.580;5.010;2022-08-02T23:02:31;101449.41;;;24.27
24714;BMP280;12820;51.580;5.010;2022-08-02T23:07:34;101451.72;;;24.18
24714;BMP280;12820;51.580;5.010;2022-08-02T23:12:39;101459.16;;;24.08
24714;BMP280;12820;51.580;5.010;2022-08-02T23:17:41;101458.84;;;23.99
24714;BMP280;12820;51.580;5.010;2022-08-02T23:23:02;101460.19;;;23.91
24714;BMP280;12820;51.580;5.010;2022-08-02T23:28:12;101461.59;;;23.81
24714;BMP280;12820;51.580;5.010;2022-08-02T23:33:14;101463.88;;;23.72
24714;BMP280;12820;51.580;5.010;2022-08-02T23:38:16;101458.44;;;23.63
24714;BMP280;12820;51.580;5.010;2022-08-02T23:43:18;101457.22;;;23.54
24714;BMP280;12820;51.580;5.010;2022-08-02T23:48:20;101456.84;;;23.47
24714;BMP280;12820;51.580;5.010;2022-08-02T23:53:22;101452.13;;;23.39
24714;BMP280;12820;51.580;5.010;2022-08-02T23:58:25;101451.75;;;23.32
